sensor_id;sensor_type;location;lat;lon;timestamp;P1;durP1;ratioP1;P2;durP2;ratioP2
76989;SDS011;65924;47.250;11.332;2024-01-11T00:00:12;10.50;;;7.00;;
76989;SDS011;65924;47.250;11.332;2024-01-11T00:00:43;11.30;;;7.20;;
76989;SDS011;65924;47.250;11.332;2024-01-11T00:01:13;12.50;;;7.30;;
76989;SDS011;65924;47.250;11.332;2024-01-11T00:01:47;11.10;;;7.30;;
76989;SDS011;65924;47.250;11.332;2024-01-11T00:02:18;10.40;;;7.00;;
76989;SDS011;65924;47.250;11.332;2024-01-11T00:02:48;11.40;;;7.50;;
76989;SDS011;65924;47.250;11.332;2024-01-11T00:03:19;10.10;;;6.70;;
76989;SDS011;65924;47.250;11.332;2024-01-11T00:03:49;11.50;;;7.40;;
76989;SDS011;65924;47.250;11.332;2024-01-11T00:04:20;10.80;;;6.80;;
76989;SDS011;65924;47.250;11.332;2024-01-11T00:04:51;12.00;;;7.70;;
76989;SDS011;65924;47.250;11.332;2024-01-11T00:05:22;11.10;;;7.80;;
76989;SDS011;65924;47.250;11.332;2024-01-11T00:05:52;11.40;;;7.60;;
76989;SDS011;65924;47.250;11.332;2024-01-11T00:06:23;10.00;;;6.60;;
76989;SDS011;65924;47.250;11.332;2024-01-11T00:06:54;10.30;;;7.10;;
76989;SDS011;65924;47.250;11.332;2024-01-11T00:07:25;10.50;;;7.80;;
76989;SDS011;65924;47.250;11.332;2024-01-11T00:07:55;12.20;;;7.50;;
76989;SDS011;65924;47.250;11.332;2024-01-11T00:08:26;10.00;;;6.80;;
76989;SDS011;65924;47.250;11.332;2024-01-11T00:08:57;12.70;;;7.40;;
76989;SDS011;65924;47.250;11.332;2024-01-11T00:09:27;12.20;;;7.70;;
76989;SDS011;65924;47.250;11.332;2024-01-11T00:09:58;12.40;;;7.80;;
76989;SDS011;65924;47.250;11.332;2024-01-11T00:10:28;12.30;;;7.40;;
76989;SDS011;65924;47.250;11.332;2024-01-11T00:10:59;12.40;;;7.80;;
76989;SDS011;65924;47.250;11.332;2024-01-11T00:11:30;12.20;;;7.80;;
76989;SDS011;65924;47.250;11.332;2024-01-11T00:12:03;11.40;;;7.40;;
76989;SDS011;65924;47.250;11.332;2024-01-11T00:12:34;11.70;;;8.00;;
76989;SDS011;65924;47.250;11.332;2024-01-11T00:13:05;14.10;;;8.20;;
76989;SDS011;65924;47.250;11.332;2024-01-11T00:13:36;11.20;;;7.80;;
76989;SDS011;65924;47.250;11.332;2024-01-11T00:14:06;16.90;;;9.00;;
76989;SDS011;65924;47.250;11.332;2024-01-11T00:14:37;15.10;;;10.00;;
76989;SDS011;65924;47.250;11.332;2024-01-11T00:15:08;15.10;;;8.90;;
76989;SDS011;65924;47.250;11.332;2024-01-11T00:15:39;15.00;;;9.20;;
76989;SDS011;65924;47.250;11.332;2024-01-11T00:16:10;13.60;;;9.20;;
76989;SDS011;65924;47.250;11.332;2024-01-11T00:16:41;14.20;;;9.20;;
76989;SDS011;65924;47.250;11.332;2024-01-11T00:17:12;15.00;;;10.70;;
76989;SDS011;65924;47.250;11.332;2024-01-11T00:17:42;14.90;;;10.10;;
76989;SDS011;65924;47.250;11.332;2024-01-11T00:18:12;15.10;;;9.70;;
76989;SDS011;65924;47.250;11.332;2024-01-11T00:18:43;15.30;;;10.80;;
76989;SDS011;65924;47.250;11.332;2024-01-11T00:19:15;15.00;;;10.10;;
76989;SDS011;65924;47.250;11.332;2024-01-11T00:19:46;14.40;;;9.70;;
76989;SDS011;65924;47.250;11.332;2024-01-11T00:20:19;16.00;;;9.90;;
76989;SDS011;65924;47.250;11.332;2024-01-11T00:20:49;16.70;;;10.20;;
76989;SDS011;65924;47.250;11.332;2024-01-11T00:21:20;14.40;;;9.60;;
76989;SDS011;65924;47.250;11.332;2024-01-11T00:21:50;13.70;;;9.10;;
76989;SDS011;65924;47.250;11.332;2024-01-11T00:22:21;16.10;;;10.30;;
76989;SDS011;65924;47.250;11.332;2024-01-11T00:22:52;17.10;;;10.50;;
76989;SDS011;65924;47.250;11.332;2024-01-11T00:23:22;16.50;;;8.70;;
76989;SDS011;65924;47.250;11.332;2024-01-11T00:23:53;14.10;;;9.40;;
76989;SDS011;65924;47.250;11.332;2024-01-11T00:24:24;14.30;;;9.30;;
76989;SDS011;65924;47.250;11.332;2024-01-11T00:24:54;14.70;;;10.80;;
76989;SDS011;65924;47.250;11.332;2024-01-11T00:25:25;14.70;;;10.50;;
76989;SDS011;65924;47.250;11.332;2024-01-11T00:25:56;14.30;;;9.80;;
76989;SDS011;65924;47.250;11.332;2024-01-11T00:26:26;13.30;;;9.40;;
76989;SDS011;65924;47.250;11.332;2024-01-11T00:26:57;15.40;;;9.90;;
76989;SDS011;65924;47.250;11.332;2024-01-11T00:27:28;16.40;;;10.50;;
76989;SDS011;65924;47.250;11.332;2024-01-11T00:27:59;17.30;;;10.30;;
76989;SDS011;65924;47.250;11.332;2024-01-11T00:28:30;16.50;;;9.90;;
76989;SDS011;65924;47.250;11.332;2024-01-11T00:29:00;18.00;;;10.80;;
76989;SDS011;65924;47.250;11.332;2024-01-11T00:29:31;19.10;;;11.40;;
76989;SDS011;65924;47.250;11.332;2024-01-11T00:30:02;18.00;;;11.80;;
76989;SDS011;65924;47.250;11.332;2024-01-11T00:30:33;16.30;;;10.80;;
76989;SDS011;65924;47.250;11.332;2024-01-11T00:31:03;18.50;;;11.90;;
76989;SDS011;65924;47.250;11.332;2024-01-11T00:31:34;16.80;;;10.40;;
76989;SDS011;65924;47.250;11.332;2024-01-11T00:32:05;17.70;;;10.40;;
76989;SDS011;65924;47.250;11.332;2024-01-11T00:32:36;19.80;;;11.30;;
76989;SDS011;65924;47.250;11.332;2024-01-11T00:33:07;21.10;;;13.80;;
76989;SDS011;65924;47.250;11.332;2024-01-11T00:33:39;18.30;;;12.30;;
76989;SDS011;65924;47.250;11.332;2024-01-11T00:34:40;19.10;;;11.80;;
76989;SDS011;65924;47.250;11.332;2024-01-11T00:35:11;22.00;;;13.70;;
76989;SDS011;65924;47.250;11.332;2024-01-11T00:35:43;20.40;;;13.20;;
76989;SDS011;65924;47.250;11.332;2024-01-11T00:36:17;21.60;;;14.60;;
76989;SDS011;65924;47.250;11.332;2024-01-11T00:36:50;20.50;;;14.10;;
76989;SDS011;65924;47.250;11.332;2024-01-11T00:37:20;21.50;;;13.50;;
76989;SDS011;65924;47.250;11.332;2024-01-11T00:37:51;20.40;;;13.60;;
76989;SDS011;65924;47.250;11.332;2024-01-11T00:38:21;20.80;;;13.60;;
76989;SDS011;65924;47.250;11.332;2024-01-11T00:38:52;18.80;;;11.70;;
76989;SDS011;65924;47.250;11.332;2024-01-11T00:39:22;21.00;;;13.20;;
76989;SDS011;65924;47.250;11.332;2024-01-11T00:39:53;21.90;;;13.30;;
76989;SDS011;65924;47.250;11.332;2024-01-11T00:40:23;21.80;;;14.30;;
76989;SDS011;65924;47.250;11.332;2024-01-11T00:40:54;20.40;;;11.90;;
76989;SDS011;65924;47.250;11.332;2024-01-11T00:41:25;20.70;;;13.00;;
76989;SDS011;65924;47.250;11.332;2024-01-11T00:41:55;20.60;;;14.00;;
76989;SDS011;65924;47.250;11.332;2024-01-11T00:42:26;19.50;;;13.00;;
76989;SDS011;65924;47.250;11.332;2024-01-11T00:42:56;21.20;;;13.10;;
76989;SDS011;65924;47.250;11.332;2024-01-11T00:43:27;19.80;;;13.20;;
76989;SDS011;65924;47.250;11.332;2024-01-11T00:43:58;18.60;;;13.40;;
76989;SDS011;65924;47.250;11.332;2024-01-11T00:44:28;20.10;;;13.10;;
76989;SDS011;65924;47.250;11.332;2024-01-11T00:44:59;21.40;;;13.10;;
76989;SDS011;65924;47.250;11.332;2024-01-11T00:45:30;21.20;;;13.10;;
76989;SDS011;65924;47.250;11.332;2024-01-11T00:46:00;19.10;;;13.50;;
76989;SDS011;65924;47.250;11.332;2024-01-11T00:46:31;18.80;;;12.60;;
76989;SDS011;65924;47.250;11.332;2024-01-11T00:47:02;19.90;;;12.50;;
76989;SDS011;65924;47.250;11.332;2024-01-11T00:47:33;21.70;;;12.70;;
76989;SDS011;65924;47.250;11.332;2024-01-11T00:48:03;18.00;;;13.20;;
76989;SDS011;65924;47.250;11.332;2024-01-11T00:48:47;20.00;;;13.30;;
76989;SDS011;65924;47.250;11.332;2024-01-11T00:49:18;21.00;;;13.30;;
76989;SDS011;65924;47.250;11.332;2024-01-11T00:49:48;19.90;;;13.70;;
76989;SDS011;65924;47.250;11.332;2024-01-11T00:50:19;21.50;;;14.10;;
76989;SDS011;65924;47.250;11.332;2024-01-11T00:50:49;19.60;;;13.40;;
76989;SDS011;65924;47.250;11.332;2024-01-11T00:51:20;25.50;;;13.80;;
76989;SDS011;65924;47.250;11.332;2024-01-11T00:51:50;20.90;;;12.90;;
76989;SDS011;65924;47.250;11.332;2024-01-11T00:52:21;17.40;;;12.70;;
76989;SDS011;65924;47.250;11.332;2024-01-11T00:52:52;17.70;;;13.10;;
76989;SDS011;65924;47.250;11.332;2024-01-11T00:53:22;14.90;;;10.70;;
76989;SDS011;65924;47.250;11.332;2024-01-11T00:53:53;15.20;;;10.90;;
76989;SDS011;65924;47.250;11.332;2024-01-11T00:54:23;15.80;;;11.20;;
76989;SDS011;65924;47.250;11.332;2024-01-11T00:54:55;18.20;;;12.50;;
76989;SDS011;65924;47.250;11.332;2024-01-11T00:55:25;15.20;;;10.70;;
76989;SDS011;65924;47.250;11.332;2024-01-11T00:55:59;16.60;;;10.20;;
76989;SDS011;65924;47.250;11.332;2024-01-11T00:56:30;14.80;;;10.20;;
76989;SDS011;65924;47.250;11.332;2024-01-11T00:57:01;15.30;;;10.30;;
76989;SDS011;65924;47.250;11.332;2024-01-11T00:57:32;17.50;;;11.00;;
76989;SDS011;65924;47.250;11.332;2024-01-11T00:58:02;15.10;;;10.90;;
76989;SDS011;65924;47.250;11.332;2024-01-11T00:58:33;15.60;;;10.70;;
76989;SDS011;65924;47.250;11.332;2024-01-11T00:59:04;16.70;;;11.20;;
76989;SDS011;65924;47.250;11.332;2024-01-11T00:59:34;15.40;;;10.20;;
76989;SDS011;65924;47.250;11.332;2024-01-11T01:00:05;15.40;;;9.30;;
76989;SDS011;65924;47.250;11.332;2024-01-11T01:00:36;12.20;;;8.20;;
76989;SDS011;65924;47.250;11.332;2024-01-11T01:01:08;13.80;;;9.80;;
76989;SDS011;65924;47.250;11.332;2024-01-11T01:01:39;13.40;;;8.60;;
76989;SDS011;65924;47.250;11.332;2024-01-11T01:02:10;13.00;;;8.50;;
76989;SDS011;65924;47.250;11.332;2024-01-11T01:02:41;13.00;;;8.70;;
76989;SDS011;65924;47.250;11.332;2024-01-11T01:03:11;12.40;;;8.20;;
76989;SDS011;65924;47.250;11.332;2024-01-11T01:03:42;10.30;;;8.10;;
76989;SDS011;65924;47.250;11.332;2024-01-11T01:04:13;12.20;;;7.70;;
76989;SDS011;65924;47.250;11.332;2024-01-11T01:04:43;12.60;;;8.10;;
76989;SDS011;65924;47.250;11.332;2024-01-11T01:05:14;10.70;;;7.30;;
76989;SDS011;65924;47.250;11.332;2024-01-11T01:05:45;12.40;;;7.60;;
76989;SDS011;65924;47.250;11.332;2024-01-11T01:06:16;12.00;;;8.40;;
76989;SDS011;65924;47.250;11.332;2024-01-11T01:06:47;12.60;;;9.20;;
76989;SDS011;65924;47.250;11.332;2024-01-11T01:07:17;12.30;;;8.60;;
76989;SDS011;65924;47.250;11.332;2024-01-11T01:07:48;15.10;;;9.90;;
76989;SDS011;65924;47.250;11.332;2024-01-11T01:08:19;13.60;;;9.30;;
76989;SDS011;65924;47.250;11.332;2024-01-11T01:08:49;13.20;;;9.00;;
76989;SDS011;65924;47.250;11.332;2024-01-11T01:09:20;15.30;;;10.50;;
76989;SDS011;65924;47.250;11.332;2024-01-11T01:09:50;15.80;;;10.00;;
76989;SDS011;65924;47.250;11.332;2024-01-11T01:10:21;15.50;;;10.40;;
76989;SDS011;65924;47.250;11.332;2024-01-11T01:10:51;16.50;;;11.00;;
76989;SDS011;65924;47.250;11.332;2024-01-11T01:11:22;17.30;;;11.10;;
76989;SDS011;65924;47.250;11.332;2024-01-11T01:11:53;16.90;;;11.70;;
76989;SDS011;65924;47.250;11.332;2024-01-11T01:12:24;16.90;;;10.80;;
76989;SDS011;65924;47.250;11.332;2024-01-11T01:12:58;15.40;;;9.70;;
76989;SDS011;65924;47.250;11.332;2024-01-11T01:13:30;15.80;;;10.60;;
76989;SDS011;65924;47.250;11.332;2024-01-11T01:14:01;14.70;;;10.30;;
76989;SDS011;65924;47.250;11.332;2024-01-11T01:14:31;16.50;;;9.70;;
76989;SDS011;65924;47.250;11.332;2024-01-11T01:15:02;15.10;;;9.90;;
76989;SDS011;65924;47.250;11.332;2024-01-11T01:15:36;15.90;;;9.60;;
76989;SDS011;65924;47.250;11.332;2024-01-11T01:16:07;15.20;;;9.70;;
76989;SDS011;65924;47.250;11.332;2024-01-11T01:16:37;16.80;;;10.50;;
76989;SDS011;65924;47.250;11.332;2024-01-11T01:17:08;14.80;;;9.80;;
76989;SDS011;65924;47.250;11.332;2024-01-11T01:17:39;14.20;;;9.70;;
76989;SDS011;65924;47.250;11.332;2024-01-11T01:18:09;14.40;;;9.20;;
76989;SDS011;65924;47.250;11.332;2024-01-11T01:18:40;16.10;;;10.10;;
76989;SDS011;65924;47.250;11.332;2024-01-11T01:19:10;14.70;;;9.00;;
76989;SDS011;65924;47.250;11.332;2024-01-11T01:19:41;13.30;;;9.30;;
76989;SDS011;65924;47.250;11.332;2024-01-11T01:20:11;11.70;;;8.10;;
76989;SDS011;65924;47.250;11.332;2024-01-11T01:20:42;13.00;;;8.70;;
76989;SDS011;65924;47.250;11.332;2024-01-11T01:21:13;18.30;;;10.70;;
76989;SDS011;65924;47.250;11.332;2024-01-11T01:21:43;16.70;;;10.70;;
76989;SDS011;65924;47.250;11.332;2024-01-11T01:22:14;17.20;;;10.90;;
76989;SDS011;65924;47.250;11.332;2024-01-11T01:22:44;15.90;;;12.10;;
76989;SDS011;65924;47.250;11.332;2024-01-11T01:23:15;18.00;;;11.90;;
76989;SDS011;65924;47.250;11.332;2024-01-11T01:23:46;15.30;;;10.10;;
76989;SDS011;65924;47.250;11.332;2024-01-11T01:24:17;13.70;;;8.50;;
76989;SDS011;65924;47.250;11.332;2024-01-11T01:24:47;13.10;;;8.30;;
76989;SDS011;65924;47.250;11.332;2024-01-11T01:25:18;13.20;;;7.90;;
76989;SDS011;65924;47.250;11.332;2024-01-11T01:25:48;11.40;;;7.70;;
76989;SDS011;65924;47.250;11.332;2024-01-11T01:26:19;11.80;;;7.70;;
76989;SDS011;65924;47.250;11.332;2024-01-11T01:26:50;16.60;;;9.40;;
76989;SDS011;65924;47.250;11.332;2024-01-11T01:27:21;15.20;;;9.70;;
76989;SDS011;65924;47.250;11.332;2024-01-11T01:27:52;14.90;;;9.20;;
76989;SDS011;65924;47.250;11.332;2024-01-11T01:28:22;15.00;;;9.40;;
76989;SDS011;65924;47.250;11.332;2024-01-11T01:28:53;17.90;;;10.80;;
76989;SDS011;65924;47.250;11.332;2024-01-11T01:29:24;20.10;;;12.80;;
76989;SDS011;65924;47.250;11.332;2024-01-11T01:29:55;17.80;;;11.90;;
76989;SDS011;65924;47.250;11.332;2024-01-11T01:30:26;15.80;;;10.00;;
76989;SDS011;65924;47.250;11.332;2024-01-11T01:30:57;14.10;;;8.90;;
76989;SDS011;65924;47.250;11.332;2024-01-11T01:31:27;13.50;;;9.00;;
76989;SDS011;65924;47.250;11.332;2024-01-11T01:32:01;14.80;;;9.10;;
76989;SDS011;65924;47.250;11.332;2024-01-11T01:32:33;15.00;;;9.80;;
76989;SDS011;65924;47.250;11.332;2024-01-11T01:33:03;15.80;;;8.90;;
76989;SDS011;65924;47.250;11.332;2024-01-11T01:33:34;15.30;;;9.10;;
76989;SDS011;65924;47.250;11.332;2024-01-11T01:34:04;12.40;;;8.40;;
76989;SDS011;65924;47.250;11.332;2024-01-11T01:34:35;14.30;;;8.60;;
76989;SDS011;65924;47.250;11.332;2024-01-11T01:35:06;15.00;;;10.20;;
76989;SDS011;65924;47.250;11.332;2024-01-11T01:35:37;14.70;;;9.70;;
76989;SDS011;65924;47.250;11.332;2024-01-11T01:36:09;14.60;;;9.60;;
76989;SDS011;65924;47.250;11.332;2024-01-11T01:36:40;16.20;;;8.70;;
76989;SDS011;65924;47.250;11.332;2024-01-11T01:37:11;13.80;;;9.40;;
76989;SDS011;65924;47.250;11.332;2024-01-11T01:37:41;12.30;;;8.10;;
76989;SDS011;65924;47.250;11.332;2024-01-11T01:38:12;13.40;;;8.40;;
76989;SDS011;65924;47.250;11.332;2024-01-11T01:38:43;14.20;;;8.40;;
76989;SDS011;65924;47.250;11.332;2024-01-11T01:39:13;13.70;;;8.60;;
76989;SDS011;65924;47.250;11.332;2024-01-11T01:39:44;14.50;;;9.10;;
76989;SDS011;65924;47.250;11.332;2024-01-11T01:40:15;14.60;;;10.40;;
76989;SDS011;65924;47.250;11.332;2024-01-11T01:40:48;13.30;;;8.70;;
76989;SDS011;65924;47.250;11.332;2024-01-11T01:41:19;14.90;;;9.50;;
76989;SDS011;65924;47.250;11.332;2024-01-11T01:41:49;14.40;;;9.20;;
76989;SDS011;65924;47.250;11.332;2024-01-11T01:42:20;14.70;;;9.80;;
76989;SDS011;65924;47.250;11.332;2024-01-11T01:42:50;14.30;;;10.00;;
76989;SDS011;65924;47.250;11.332;2024-01-11T01:43:30;17.10;;;9.80;;
76989;SDS011;65924;47.250;11.332;2024-01-11T01:44:00;14.10;;;8.90;;
76989;SDS011;65924;47.250;11.332;2024-01-11T01:44:31;15.30;;;8.90;;
76989;SDS011;65924;47.250;11.332;2024-01-11T01:45:01;17.50;;;11.00;;
76989;SDS011;65924;47.250;11.332;2024-01-11T01:45:32;15.80;;;9.70;;
76989;SDS011;65924;47.250;11.332;2024-01-11T01:46:03;12.70;;;8.10;;
76989;SDS011;65924;47.250;11.332;2024-01-11T01:46:35;13.50;;;8.20;;
76989;SDS011;65924;47.250;11.332;2024-01-11T01:47:40;16.10;;;9.20;;
76989;SDS011;65924;47.250;11.332;2024-01-11T01:48:12;15.20;;;10.10;;
76989;SDS011;65924;47.250;11.332;2024-01-11T01:48:42;14.50;;;9.00;;
76989;SDS011;65924;47.250;11.332;2024-01-11T01:49:13;14.80;;;9.90;;
76989;SDS011;65924;47.250;11.332;2024-01-11T01:49:44;15.30;;;9.30;;
76989;SDS011;65924;47.250;11.332;2024-01-11T01:50:22;13.60;;;9.60;;
76989;SDS011;65924;47.250;11.332;2024-01-11T01:50:53;14.20;;;9.00;;
76989;SDS011;65924;47.250;11.332;2024-01-11T01:51:26;13.20;;;8.70;;
76989;SDS011;65924;47.250;11.332;2024-01-11T01:52:02;15.60;;;9.80;;
76989;SDS011;65924;47.250;11.332;2024-01-11T01:52:34;14.30;;;9.50;;
76989;SDS011;65924;47.250;11.332;2024-01-11T01:53:08;14.80;;;9.00;;
76989;SDS011;65924;47.250;11.332;2024-01-11T01:53:38;13.90;;;9.70;;
76989;SDS011;65924;47.250;11.332;2024-01-11T01:54:09;14.30;;;9.30;;
76989;SDS011;65924;47.250;11.332;2024-01-11T01:54:43;14.50;;;9.20;;
76989;SDS011;65924;47.250;11.332;2024-01-11T01:55:14;14.90;;;10.30;;
76989;SDS011;65924;47.250;11.332;2024-01-11T01:55:46;15.70;;;10.30;;
76989;SDS011;65924;47.250;11.332;2024-01-11T01:56:49;16.00;;;8.90;;
76989;SDS011;65924;47.250;11.332;2024-01-11T01:57:21;16.40;;;9.70;;
76989;SDS011;65924;47.250;11.332;2024-01-11T01:57:52;15.80;;;10.50;;
76989;SDS011;65924;47.250;11.332;2024-01-11T01:58:23;17.00;;;11.50;;
76989;SDS011;65924;47.250;11.332;2024-01-11T01:58:54;17.50;;;10.60;;
76989;SDS011;65924;47.250;11.332;2024-01-11T01:59:26;15.20;;;11.30;;
76989;SDS011;65924;47.250;11.332;2024-01-11T01:59:59;17.60;;;10.20;;
76989;SDS011;65924;47.250;11.332;2024-01-11T02:00:31;14.80;;;10.20;;
76989;SDS011;65924;47.250;11.332;2024-01-11T02:01:02;14.10;;;9.50;;
76989;SDS011;65924;47.250;11.332;2024-01-11T02:01:32;16.40;;;10.30;;
76989;SDS011;65924;47.250;11.332;2024-01-11T02:02:04;15.20;;;9.40;;
76989;SDS011;65924;47.250;11.332;2024-01-11T02:02:35;15.80;;;10.60;;
76989;SDS011;65924;47.250;11.332;2024-01-11T02:03:08;14.30;;;9.90;;
76989;SDS011;65924;47.250;11.332;2024-01-11T02:03:39;15.20;;;9.80;;
76989;SDS011;65924;47.250;11.332;2024-01-11T02:04:10;15.90;;;11.10;;
76989;SDS011;65924;47.250;11.332;2024-01-11T02:04:41;13.20;;;9.80;;
76989;SDS011;65924;47.250;11.332;2024-01-11T02:05:13;13.30;;;9.50;;
76989;SDS011;65924;47.250;11.332;2024-01-11T02:05:44;12.80;;;8.90;;
76989;SDS011;65924;47.250;11.332;2024-01-11T02:06:15;13.20;;;8.90;;
76989;SDS011;65924;47.250;11.332;2024-01-11T02:06:46;12.70;;;8.70;;
76989;SDS011;65924;47.250;11.332;2024-01-11T02:07:18;14.60;;;9.30;;
76989;SDS011;65924;47.250;11.332;2024-01-11T02:07:49;14.40;;;9.80;;
76989;SDS011;65924;47.250;11.332;2024-01-11T02:08:21;14.30;;;9.10;;
76989;SDS011;65924;47.250;11.332;2024-01-11T02:08:53;15.20;;;9.60;;
76989;SDS011;65924;47.250;11.332;2024-01-11T02:09:26;15.40;;;9.60;;
76989;SDS011;65924;47.250;11.332;2024-01-11T02:09:56;15.60;;;9.70;;
76989;SDS011;65924;47.250;11.332;2024-01-11T02:10:27;15.40;;;10.10;;
76989;SDS011;65924;47.250;11.332;2024-01-11T02:11:00;16.10;;;10.40;;
76989;SDS011;65924;47.250;11.332;2024-01-11T02:11:31;15.20;;;10.60;;
76989;SDS011;65924;47.250;11.332;2024-01-11T02:12:01;15.10;;;10.90;;
76989;SDS011;65924;47.250;11.332;2024-01-11T02:12:36;15.00;;;10.40;;
76989;SDS011;65924;47.250;11.332;2024-01-11T02:13:10;13.80;;;10.00;;
76989;SDS011;65924;47.250;11.332;2024-01-11T02:13:43;16.10;;;10.30;;
76989;SDS011;65924;47.250;11.332;2024-01-11T02:14:13;15.80;;;10.00;;
76989;SDS011;65924;47.250;11.332;2024-01-11T02:14:44;17.30;;;11.20;;
76989;SDS011;65924;47.250;11.332;2024-01-11T02:15:15;16.00;;;10.80;;
76989;SDS011;65924;47.250;11.332;2024-01-11T02:15:46;15.10;;;9.80;;
76989;SDS011;65924;47.250;11.332;2024-01-11T02:16:16;15.90;;;9.90;;
76989;SDS011;65924;47.250;11.332;2024-01-11T02:16:47;13.40;;;8.80;;
76989;SDS011;65924;47.250;11.332;2024-01-11T02:17:17;14.90;;;9.20;;
76989;SDS011;65924;47.250;11.332;2024-01-11T02:17:48;16.10;;;10.70;;
76989;SDS011;65924;47.250;11.332;2024-01-11T02:18:19;14.40;;;10.40;;
76989;SDS011;65924;47.250;11.332;2024-01-11T02:18:49;15.10;;;10.00;;
76989;SDS011;65924;47.250;11.332;2024-01-11T02:19:20;14.70;;;9.20;;
76989;SDS011;65924;47.250;11.332;2024-01-11T02:19:53;14.70;;;8.90;;
76989;SDS011;65924;47.250;11.332;2024-01-11T02:20:24;14.00;;;9.70;;
76989;SDS011;65924;47.250;11.332;2024-01-11T02:20:55;13.60;;;9.40;;
76989;SDS011;65924;47.250;11.332;2024-01-11T02:21:27;15.70;;;9.60;;
76989;SDS011;65924;47.250;11.332;2024-01-11T02:22:00;15.90;;;9.60;;
76989;SDS011;65924;47.250;11.332;2024-01-11T02:22:38;15.10;;;9.40;;
76989;SDS011;65924;47.250;11.332;2024-01-11T02:23:12;14.30;;;9.00;;
76989;SDS011;65924;47.250;11.332;2024-01-11T02:24:02;14.60;;;9.40;;
76989;SDS011;65924;47.250;11.332;2024-01-11T02:24:33;14.70;;;9.00;;
76989;SDS011;65924;47.250;11.332;2024-01-11T02:25:04;16.10;;;9.10;;
76989;SDS011;65924;47.250;11.332;2024-01-11T02:25:35;13.70;;;9.00;;
76989;SDS011;65924;47.250;11.332;2024-01-11T02:26:05;16.70;;;9.80;;
76989;SDS011;65924;47.250;11.332;2024-01-11T02:26:36;14.30;;;9.20;;
76989;SDS011;65924;47.250;11.332;2024-01-11T02:27:07;16.20;;;11.70;;
76989;SDS011;65924;47.250;11.332;2024-01-11T02:27:45;14.20;;;9.70;;
76989;SDS011;65924;47.250;11.332;2024-01-11T02:28:17;13.40;;;8.60;;
76989;SDS011;65924;47.250;11.332;2024-01-11T02:28:48;15.80;;;9.80;;
76989;SDS011;65924;47.250;11.332;2024-01-11T02:29:18;13.60;;;9.40;;
76989;SDS011;65924;47.250;11.332;2024-01-11T02:29:49;14.20;;;9.30;;
76989;SDS011;65924;47.250;11.332;2024-01-11T02:30:20;15.30;;;9.00;;
76989;SDS011;65924;47.250;11.332;2024-01-11T02:30:51;15.30;;;9.90;;
76989;SDS011;65924;47.250;11.332;2024-01-11T02:31:21;13.10;;;9.40;;
76989;SDS011;65924;47.250;11.332;2024-01-11T02:31:53;13.90;;;9.20;;
76989;SDS011;65924;47.250;11.332;2024-01-11T02:32:26;15.00;;;9.80;;
76989;SDS011;65924;47.250;11.332;2024-01-11T02:32:57;15.10;;;9.40;;
76989;SDS011;65924;47.250;11.332;2024-01-11T02:33:28;14.30;;;9.40;;
76989;SDS011;65924;47.250;11.332;2024-01-11T02:33:59;13.70;;;8.60;;
76989;SDS011;65924;47.250;11.332;2024-01-11T02:34:30;12.90;;;8.40;;
76989;SDS011;65924;47.250;11.332;2024-01-11T02:35:01;12.80;;;8.10;;
76989;SDS011;65924;47.250;11.332;2024-01-11T02:35:31;12.90;;;8.50;;
76989;SDS011;65924;47.250;11.332;2024-01-11T02:36:34;13.30;;;8.40;;
76989;SDS011;65924;47.250;11.332;2024-01-11T02:37:05;13.60;;;8.30;;
76989;SDS011;65924;47.250;11.332;2024-01-11T02:37:36;12.10;;;7.90;;
76989;SDS011;65924;47.250;11.332;2024-01-11T02:38:09;14.70;;;9.40;;
76989;SDS011;65924;47.250;11.332;2024-01-11T02:38:41;12.80;;;8.90;;
76989;SDS011;65924;47.250;11.332;2024-01-11T02:39:13;14.70;;;9.40;;
76989;SDS011;65924;47.250;11.332;2024-01-11T02:39:46;13.90;;;8.80;;
76989;SDS011;65924;47.250;11.332;2024-01-11T02:40:17;14.20;;;9.80;;
76989;SDS011;65924;47.250;11.332;2024-01-11T02:41:20;13.50;;;8.70;;
76989;SDS011;65924;47.250;11.332;2024-01-11T02:41:53;14.80;;;9.60;;
76989;SDS011;65924;47.250;11.332;2024-01-11T02:42:26;13.70;;;9.40;;
76989;SDS011;65924;47.250;11.332;2024-01-11T02:42:57;14.20;;;9.60;;
76989;SDS011;65924;47.250;11.332;2024-01-11T02:43:27;15.70;;;9.80;;
76989;SDS011;65924;47.250;11.332;2024-01-11T02:43:58;14.40;;;9.30;;
76989;SDS011;65924;47.250;11.332;2024-01-11T02:44:30;15.80;;;10.50;;
76989;SDS011;65924;47.250;11.332;2024-01-11T02:45:02;15.80;;;10.40;;
76989;SDS011;65924;47.250;11.332;2024-01-11T02:45:34;13.60;;;9.00;;
76989;SDS011;65924;47.250;11.332;2024-01-11T02:46:05;13.40;;;8.40;;
76989;SDS011;65924;47.250;11.332;2024-01-11T02:46:35;14.60;;;8.90;;
76989;SDS011;65924;47.250;11.332;2024-01-11T02:47:06;14.80;;;10.00;;
76989;SDS011;65924;47.250;11.332;2024-01-11T02:47:37;12.70;;;8.20;;
76989;SDS011;65924;47.250;11.332;2024-01-11T02:48:07;12.30;;;8.50;;
76989;SDS011;65924;47.250;11.332;2024-01-11T02:48:38;12.10;;;8.50;;
76989;SDS011;65924;47.250;11.332;2024-01-11T02:49:08;13.40;;;9.20;;
76989;SDS011;65924;47.250;11.332;2024-01-11T02:49:39;13.80;;;8.80;;
76989;SDS011;65924;47.250;11.332;2024-01-11T02:50:10;15.80;;;9.70;;
76989;SDS011;65924;47.250;11.332;2024-01-11T02:50:43;12.90;;;8.90;;
76989;SDS011;65924;47.250;11.332;2024-01-11T02:51:14;14.60;;;10.60;;
76989;SDS011;65924;47.250;11.332;2024-01-11T02:51:44;15.00;;;10.60;;
76989;SDS011;65924;47.250;11.332;2024-01-11T02:52:15;14.10;;;9.10;;
76989;SDS011;65924;47.250;11.332;2024-01-11T02:52:46;15.60;;;9.60;;
76989;SDS011;65924;47.250;11.332;2024-01-11T02:53:16;14.50;;;9.70;;
76989;SDS011;65924;47.250;11.332;2024-01-11T02:53:47;13.80;;;9.30;;
76989;SDS011;65924;47.250;11.332;2024-01-11T02:54:17;13.30;;;8.40;;
76989;SDS011;65924;47.250;11.332;2024-01-11T02:54:48;13.60;;;9.10;;
76989;SDS011;65924;47.250;11.332;2024-01-11T02:55:19;14.40;;;8.70;;
76989;SDS011;65924;47.250;11.332;2024-01-11T02:55:50;12.70;;;8.90;;
76989;SDS011;65924;47.250;11.332;2024-01-11T02:56:21;13.70;;;9.10;;
76989;SDS011;65924;47.250;11.332;2024-01-11T02:56:51;14.50;;;9.70;;
76989;SDS011;65924;47.250;11.332;2024-01-11T02:57:22;15.60;;;10.40;;
76989;SDS011;65924;47.250;11.332;2024-01-11T02:57:52;15.50;;;10.80;;
76989;SDS011;65924;47.250;11.332;2024-01-11T02:58:23;21.20;;;13.20;;
76989;SDS011;65924;47.250;11.332;2024-01-11T02:58:53;21.00;;;14.20;;
76989;SDS011;65924;47.250;11.332;2024-01-11T02:59:24;24.10;;;14.90;;
76989;SDS011;65924;47.250;11.332;2024-01-11T02:59:54;29.00;;;16.50;;
76989;SDS011;65924;47.250;11.332;2024-01-11T03:00:25;17.60;;;11.40;;
76989;SDS011;65924;47.250;11.332;2024-01-11T03:00:56;18.00;;;10.90;;
76989;SDS011;65924;47.250;11.332;2024-01-11T03:01:26;15.60;;;10.50;;
76989;SDS011;65924;47.250;11.332;2024-01-11T03:01:57;14.80;;;9.60;;
76989;SDS011;65924;47.250;11.332;2024-01-11T03:02:28;14.10;;;9.80;;
76989;SDS011;65924;47.250;11.332;2024-01-11T03:02:58;20.10;;;12.40;;
76989;SDS011;65924;47.250;11.332;2024-01-11T03:03:29;24.90;;;15.40;;
76989;SDS011;65924;47.250;11.332;2024-01-11T03:03:59;29.00;;;16.90;;